createdAt,value
2018-03-02T00:00:16.524Z,-3.50
2018-03-02T00:02:42.706Z,-3.60
2018-03-02T00:05:10.320Z,-3.60
2018-03-02T00:07:36.508Z,-3.60
2018-03-02T00:10:02.729Z,-3.60
2018-03-02T00:12:29.056Z,-3.60
2018-03-02T00:14:55.515Z,-3.60
2018-03-02T00:17:22.103Z,-3.60
2018-03-02T00:19:49.095Z,-3.70
2018-03-02T00:22:15.633Z,-3.60
2018-03-02T00:24:41.869Z,-3.70
2018-03-02T00:27:08.263Z,-3.60
2018-03-02T00:29:34.485Z,-3.60
2018-03-02T00:32:00.727Z,-3.60
2018-03-02T00:34:26.867Z,-3.60
2018-03-02T00:36:53.023Z,-3.60
2018-03-02T00:39:19.200Z,-3.60
2018-03-02T00:41:46.132Z,-3.60
2018-03-02T00:44:12.337Z,-3.60
2018-03-02T00:46:38.553Z,-3.60
2018-03-02T00:49:04.739Z,-3.60
2018-03-02T00:51:30.950Z,-3.60
2018-03-02T00:53:57.132Z,-3.60
2018-03-02T00:56:23.600Z,-3.60
2018-03-02T00:58:50.475Z,-3.60
2018-03-02T01:01:16.675Z,-3.60
2018-03-02T01:03:42.847Z,-3.60
2018-03-02T01:06:09.037Z,-3.60
2018-03-02T01:08:35.255Z,-3.60
2018-03-02T01:11:01.399Z,-3.60
2018-03-02T01:13:27.605Z,-3.60
2018-03-02T01:15:53.794Z,-3.60
2018-03-02T01:18:19.945Z,-3.60
2018-03-02T01:20:46.102Z,-3.60
2018-03-02T01:23:12.222Z,-3.60
2018-03-02T01:25:38.363Z,-3.60
2018-03-02T01:28:05.291Z,-3.60
2018-03-02T01:30:31.419Z,-3.70
2018-03-02T01:32:57.542Z,-3.60
2018-03-02T01:35:23.738Z,-3.60
2018-03-02T01:37:49.930Z,-3.60
2018-03-02T01:40:16.107Z,-3.60
2018-03-02T01:42:42.277Z,-3.60
2018-03-02T01:45:08.956Z,-3.60
2018-03-02T01:47:35.840Z,-3.60
2018-03-02T01:50:01.993Z,-3.60
2018-03-02T01:52:28.229Z,-3.60
2018-03-02T01:54:54.364Z,-3.60
2018-03-02T01:57:20.552Z,-3.70
2018-03-02T01:59:46.760Z,-3.60
2018-03-02T02:02:12.904Z,-3.60
2018-03-02T02:04:39.066Z,-3.60
2018-03-02T02:07:05.221Z,-3.60
2018-03-02T02:09:32.100Z,-3.60
2018-03-02T02:11:58.299Z,-3.60
2018-03-02T02:14:25.299Z,-3.60
2018-03-02T02:16:51.400Z,-3.60
2018-03-02T02:19:17.553Z,-3.60
2018-03-02T02:21:44.450Z,-3.60
2018-03-02T02:24:10.647Z,-3.60
2018-03-02T02:26:36.915Z,-3.60
2018-03-02T02:29:03.052Z,-3.60
2018-03-02T02:31:29.213Z,-3.50
2018-03-02T02:33:55.347Z,-3.50
2018-03-02T02:36:21.502Z,-3.50
2018-03-02T02:38:47.672Z,-3.60
2018-03-02T02:41:13.857Z,-3.60
2018-03-02T02:43:40.076Z,-3.50
2018-03-02T02:46:06.273Z,-3.50
2018-03-02T02:48:32.645Z,-3.50
2018-03-02T02:50:58.914Z,-3.50
2018-03-02T02:53:25.823Z,-3.50
2018-03-02T02:55:51.960Z,-3.50
2018-03-02T02:58:18.221Z,-3.50
2018-03-02T03:00:44.495Z,-3.50
2018-03-02T03:03:10.651Z,-3.50
2018-03-02T03:05:36.846Z,-3.50
2018-03-02T03:08:03.799Z,-3.50
2018-03-02T03:10:30.182Z,-3.50
2018-03-02T03:12:57.274Z,-3.50
2018-03-02T03:15:23.787Z,-3.50
2018-03-02T03:17:49.935Z,-3.50
2018-03-02T03:20:16.115Z,-3.40
2018-03-02T03:22:42.305Z,-3.40
2018-03-02T03:25:08.510Z,-3.40
2018-03-02T03:27:34.687Z,-3.50
2018-03-02T03:30:00.867Z,-3.50
2018-03-02T03:32:27.088Z,-3.50
2018-03-02T03:34:53.272Z,-3.50
2018-03-02T03:37:19.444Z,-3.50
2018-03-02T03:39:45.627Z,-3.50
2018-03-02T03:42:11.816Z,-3.50
2018-03-02T03:44:37.999Z,-3.50
2018-03-02T03:47:04.171Z,-3.50
2018-03-02T03:49:30.372Z,-3.60
2018-03-02T03:51:56.540Z,-3.60
2018-03-02T03:54:22.696Z,-3.60
2018-03-02T03:56:48.843Z,-3.70
2018-03-02T03:59:15.092Z,-3.70
2018-03-02T04:01:41.316Z,-3.60
2018-03-02T04:04:07.464Z,-3.60
2018-03-02T04:06:34.375Z,-3.50
2018-03-02T04:09:00.601Z,-3.50
2018-03-02T04:11:26.788Z,-3.60
2018-03-02T04:13:52.957Z,-3.50
2018-03-02T04:16:19.192Z,-3.50
2018-03-02T04:18:45.378Z,-3.50
2018-03-02T04:21:11.554Z,-3.50
2018-03-02T04:23:38.462Z,-3.50
2018-03-02T04:26:04.616Z,-3.60
2018-03-02T04:28:30.800Z,-3.50
2018-03-02T04:30:56.961Z,-3.60
2018-03-02T04:33:23.195Z,-3.60
2018-03-02T04:35:49.357Z,-3.60
2018-03-02T04:38:15.546Z,-3.60
2018-03-02T04:40:41.676Z,-3.60
2018-03-02T04:43:07.853Z,-3.60
2018-03-02T04:45:34.077Z,-3.70
2018-03-02T04:48:00.257Z,-3.70
2018-03-02T04:50:26.571Z,-3.70
2018-03-02T04:52:52.774Z,-3.70
2018-03-02T04:55:18.955Z,-3.70
2018-03-02T04:57:45.904Z,-3.80
2018-03-02T05:00:12.835Z,-3.80
2018-03-02T05:02:38.952Z,-3.80
2018-03-02T05:05:05.092Z,-3.90
2018-03-02T05:07:31.272Z,-3.90
2018-03-02T05:09:58.217Z,-4.00
2018-03-02T05:12:24.391Z,-4.10
2018-03-02T05:14:50.737Z,-4.00
2018-03-02T05:17:16.872Z,-4.10
2018-03-02T05:19:43.025Z,-4.20
2018-03-02T05:22:09.957Z,-4.20
2018-03-02T05:24:36.856Z,-4.20
2018-03-02T05:27:03.012Z,-4.20
2018-03-02T05:29:30.338Z,-4.20
2018-03-02T05:31:56.531Z,-4.20
2018-03-02T05:34:22.789Z,-4.20
2018-03-02T05:36:49.057Z,-4.20
2018-03-02T05:39:15.363Z,-4.30
2018-03-02T05:41:42.312Z,-4.30
2018-03-02T05:44:08.485Z,-4.30
2018-03-02T05:46:34.624Z,-4.30
2018-03-02T05:49:01.533Z,-4.30
2018-03-02T05:51:27.728Z,-4.30
2018-03-02T05:53:53.902Z,-4.30
2018-03-02T05:56:20.128Z,-4.30
2018-03-02T05:58:46.359Z,-4.30
2018-03-02T06:01:12.611Z,-4.20
2018-03-02T06:03:38.917Z,-4.20
2018-03-02T06:06:05.951Z,-4.10
2018-03-02T06:08:32.881Z,-4.10
2018-03-02T06:10:59.051Z,-4.10
2018-03-02T06:13:25.525Z,-4.10
2018-03-02T06:15:52.465Z,-4.10
2018-03-02T06:18:18.669Z,-4.10
2018-03-02T06:20:44.827Z,-4.10
2018-03-02T06:23:10.988Z,-4.10
2018-03-02T06:25:37.300Z,-4.10
2018-03-02T06:28:04.432Z,-4.00
2018-03-02T06:30:30.706Z,-4.00
2018-03-02T06:32:56.865Z,-4.00
2018-03-02T06:35:23.131Z,-4.00
2018-03-02T06:37:49.400Z,-3.90
2018-03-02T06:40:16.351Z,-4.00
2018-03-02T06:42:42.529Z,-4.00
2018-03-02T06:45:08.722Z,-4.00
2018-03-02T06:47:34.924Z,-4.00
2018-03-02T06:50:01.200Z,-4.00
2018-03-02T06:52:27.505Z,-4.00
2018-03-02T06:54:54.142Z,-3.90
2018-03-02T06:57:20.397Z,-3.80
2018-03-02T06:59:46.574Z,-3.80
2018-03-02T07:02:13.485Z,-3.70
2018-03-02T07:04:39.645Z,-3.80
2018-03-02T07:07:05.828Z,-3.70
2018-03-02T07:09:32.018Z,-3.80
2018-03-02T07:11:58.188Z,-3.70
2018-03-02T07:14:25.154Z,-3.70
2018-03-02T07:16:51.305Z,-3.70
2018-03-02T07:19:17.533Z,-3.70
2018-03-02T07:21:43.683Z,-3.60
2018-03-02T07:24:10.073Z,-3.50
2018-03-02T07:26:36.205Z,-3.40
2018-03-02T07:29:02.340Z,-3.40
2018-03-02T07:31:28.519Z,-3.30
2018-03-02T07:33:55.574Z,-3.20
2018-03-02T07:36:22.489Z,-3.20
2018-03-02T07:38:48.705Z,-3.20
2018-03-02T07:41:14.882Z,-3.20
2018-03-02T07:43:41.075Z,-3.20
2018-03-02T07:46:07.243Z,-3.20
2018-03-02T07:48:33.458Z,-3.10
2018-03-02T07:51:00.081Z,-3.00
2018-03-02T07:53:27.045Z,-2.90
2018-03-02T07:55:53.253Z,-2.90
2018-03-02T07:58:19.456Z,-2.70
2018-03-02T08:00:45.633Z,-2.70
2018-03-02T08:03:11.824Z,-2.70
2018-03-02T08:52:40.055Z,-1.90
2018-03-02T08:55:06.210Z,-1.90
2018-03-02T08:57:32.405Z,-1.80
2018-03-02T08:59:58.597Z,-1.70
2018-03-02T09:02:24.776Z,-1.60
2018-03-02T09:04:51.683Z,-1.30
2018-03-02T09:07:17.964Z,-1.30
2018-03-02T09:09:44.164Z,-1.20
2018-03-02T09:12:10.370Z,-1.10
2018-03-02T09:14:36.516Z,-1.30
2018-03-02T09:19:55.613Z,-1.10
2018-03-02T09:22:22.222Z,-1.00
2018-03-02T09:24:48.506Z,-0.80
2018-03-02T09:27:14.657Z,-0.80
2018-03-02T09:29:40.839Z,-0.70
2018-03-02T09:32:07.174Z,-0.60
2018-03-02T09:34:33.682Z,-0.60
2018-03-02T09:37:00.518Z,-0.60
2018-03-02T09:39:26.789Z,-0.80
2018-03-02T09:41:53.294Z,-0.80
2018-03-02T09:44:19.907Z,-0.80
2018-03-02T09:46:46.519Z,-0.80
2018-03-02T09:49:13.076Z,-0.80
2018-03-02T09:51:39.653Z,-0.60
2018-03-02T09:54:06.280Z,-0.70
2018-03-02T09:56:33.497Z,-0.60
2018-03-02T09:58:59.764Z,-0.60
2018-03-02T10:01:26.039Z,-0.50
2018-03-02T10:03:52.229Z,-0.40
2018-03-02T10:06:18.489Z,-0.40
2018-03-02T10:08:44.737Z,-0.30
2018-03-02T10:11:10.931Z,-0.20
2018-03-02T10:13:37.098Z,-0.10
2018-03-02T10:16:04.332Z,-0.20
2018-03-02T10:18:30.557Z,-0.40
2018-03-02T10:20:56.738Z,-0.20
2018-03-02T10:23:22.954Z,-0.10
2018-03-02T10:25:49.196Z,0.00
2018-03-02T10:28:15.636Z,0.00
2018-03-02T10:30:41.836Z,0.10
2018-03-02T10:33:08.079Z,0.20
2018-03-02T10:35:55.559Z,0.40
2018-03-02T10:38:22.086Z,0.40
2018-03-02T10:40:48.351Z,0.50
2018-03-02T10:43:18.674Z,0.50
2018-03-02T10:45:45.811Z,0.60
2018-03-02T10:48:11.968Z,0.70
2018-03-02T10:50:38.143Z,0.90
2018-03-02T10:53:04.311Z,0.90
2018-03-02T10:55:30.501Z,1.20
2018-03-02T10:57:56.641Z,1.10
2018-03-02T11:00:28.910Z,1.00
2018-03-02T11:02:56.028Z,1.00
2018-03-02T11:05:22.352Z,1.00
2018-03-02T11:07:49.426Z,1.50
2018-03-02T11:10:16.697Z,1.50
2018-03-02T11:12:43.608Z,1.70
2018-03-02T11:15:09.776Z,1.60
2018-03-02T11:17:35.923Z,1.50
2018-03-02T11:20:02.153Z,1.40
2018-03-02T11:22:28.303Z,1.30
2018-03-02T11:24:54.450Z,1.40
2018-03-02T11:27:21.383Z,1.40
2018-03-02T11:29:47.556Z,1.40
2018-03-02T11:32:14.450Z,1.40
2018-03-02T11:34:40.632Z,1.40
2018-03-02T11:37:06.831Z,1.70
2018-03-02T11:39:33.099Z,1.60
2018-03-02T11:42:00.151Z,1.50
2018-03-02T11:44:26.786Z,1.60
2018-03-02T11:46:53.166Z,1.80
2018-03-02T11:49:19.421Z,1.80
2018-03-02T11:51:46.799Z,1.80
2018-03-02T11:54:13.113Z,1.80
2018-03-02T11:56:39.385Z,1.90
2018-03-02T11:59:06.331Z,1.50
2018-03-02T12:01:32.615Z,1.50
2018-03-02T12:03:58.887Z,1.50
2018-03-02T12:06:25.689Z,1.50
2018-03-02T12:08:52.588Z,1.40
2018-03-02T12:11:18.841Z,1.40
2018-03-02T12:13:45.381Z,1.40
2018-03-02T12:16:12.615Z,1.40
2018-03-02T12:18:38.782Z,1.30
2018-03-02T12:21:05.746Z,1.50
2018-03-02T12:23:31.994Z,1.50
2018-03-02T12:25:58.215Z,1.60
2018-03-02T12:28:24.413Z,1.70
2018-03-02T12:30:50.609Z,1.80
2018-03-02T12:33:16.839Z,1.90
2018-03-02T12:35:43.053Z,2.00
2018-03-02T12:38:09.316Z,2.00
2018-03-02T12:40:35.516Z,2.10
2018-03-02T12:43:02.537Z,2.20
2018-03-02T12:45:28.746Z,2.10
2018-03-02T12:47:55.648Z,2.20
2018-03-02T12:50:21.802Z,2.00
2018-03-02T12:52:47.946Z,2.00
2018-03-02T12:55:14.272Z,2.10
2018-03-02T12:57:40.362Z,2.10
2018-03-02T13:00:06.553Z,2.20
2018-03-02T13:02:33.007Z,2.30
2018-03-02T13:04:59.619Z,2.40
2018-03-02T13:07:28.053Z,2.40
2018-03-02T13:09:54.310Z,2.40
2018-03-02T13:12:20.925Z,2.40
2018-03-02T13:14:48.336Z,2.50
2018-03-02T13:17:16.554Z,2.60
2018-03-02T13:19:42.845Z,2.40
2018-03-02T13:22:21.687Z,2.30
2018-03-02T13:24:48.433Z,2.30
2018-03-02T13:27:26.828Z,2.30
2018-03-02T13:29:53.276Z,2.30
2018-03-02T13:32:19.608Z,2.10
2018-03-02T13:34:58.473Z,2.10
2018-03-02T13:37:25.062Z,2.00
2018-03-02T13:40:03.890Z,2.10
2018-03-02T13:42:31.336Z,2.30
2018-03-02T13:44:58.400Z,2.60
2018-03-02T13:47:36.854Z,2.50
2018-03-02T13:50:06.817Z,2.40
2018-03-02T13:52:33.306Z,2.40
2018-03-02T13:55:00.636Z,2.40
2018-03-02T13:57:39.078Z,2.40
2018-03-02T14:02:51.913Z,2.60
2018-03-02T14:05:18.540Z,2.60
2018-03-02T14:07:45.923Z,2.60
2018-03-02T14:10:12.295Z,2.40
2018-03-02T14:12:38.653Z,2.30
2018-03-02T14:15:05.687Z,2.20
2018-03-02T14:17:32.236Z,2.30
2018-03-02T14:19:58.673Z,2.30
2018-03-02T14:22:24.965Z,2.30
2018-03-02T14:24:53.668Z,2.40
2018-03-02T14:27:20.132Z,2.50
2018-03-02T14:29:46.500Z,2.60
2018-03-02T14:34:45.826Z,2.60
2018-03-02T14:37:12.485Z,2.50
2018-03-02T14:39:40.164Z,2.60
2018-03-02T14:42:06.796Z,2.60
2018-03-02T14:44:33.166Z,2.60
2018-03-02T14:46:59.758Z,2.40
2018-03-02T14:49:26.969Z,2.20
2018-03-02T14:51:53.491Z,2.10
2018-03-02T14:54:19.840Z,2.10
2018-03-02T14:56:46.292Z,2.20
2018-03-02T14:59:12.764Z,2.10
2018-03-02T15:01:39.053Z,2.20
2018-03-02T15:04:05.669Z,2.30
2018-03-02T15:06:32.153Z,2.20
2018-03-02T15:08:59.128Z,2.20
2018-03-02T15:11:25.837Z,2.20
2018-03-02T15:13:52.101Z,2.30
2018-03-02T15:16:18.390Z,2.30
2018-03-02T15:18:45.020Z,2.40
2018-03-02T15:21:12.340Z,2.40
2018-03-02T15:23:38.743Z,2.40
2018-03-02T15:26:05.200Z,2.30
2018-03-02T15:28:31.508Z,2.30
2018-03-02T15:31:00.188Z,2.40
2018-03-02T15:33:27.692Z,2.30
2018-03-02T15:35:54.056Z,2.30
2018-03-02T15:38:20.350Z,2.30
2018-03-02T15:40:47.182Z,2.30
2018-03-02T16:13:57.433Z,1.90
2018-03-02T16:16:25.411Z,1.80
2018-03-02T16:18:52.943Z,1.80
2018-03-02T16:21:19.346Z,1.80
2018-03-02T16:23:46.940Z,1.70
2018-03-02T16:26:14.628Z,1.70
2018-03-02T16:28:40.912Z,1.70
2018-03-02T16:31:07.282Z,1.60
2018-03-02T16:33:33.552Z,1.50
2018-03-02T16:35:59.750Z,1.40
2018-03-02T16:38:26.924Z,1.50
2018-03-02T16:40:53.200Z,1.50
2018-03-02T16:43:19.501Z,1.60
2018-03-02T16:45:46.448Z,1.40
2018-03-02T16:48:12.760Z,1.40
2018-03-02T16:50:38.948Z,1.30
2018-03-02T16:53:05.913Z,1.30
2018-03-02T16:55:32.171Z,1.30
2018-03-02T16:57:58.436Z,1.20
2018-03-02T17:00:24.653Z,1.30
2018-03-02T17:02:52.016Z,1.20
2018-03-02T17:05:18.406Z,1.20
2018-03-02T17:17:04.792Z,0.90
2018-03-02T17:19:31.011Z,0.90
2018-03-02T17:21:57.949Z,0.90
2018-03-02T17:24:24.192Z,0.90
2018-03-02T17:26:50.404Z,0.90
2018-03-02T17:29:17.089Z,1.00
2018-03-02T17:31:43.394Z,0.90
2018-03-02T17:34:09.667Z,0.90
2018-03-02T17:36:36.397Z,1.00
2018-03-02T17:39:02.584Z,1.00
2018-03-02T17:41:28.831Z,0.90
2018-03-02T17:43:55.032Z,0.90
2018-03-02T17:46:23.483Z,0.80
2018-03-02T17:48:50.612Z,0.80
2018-03-02T17:51:16.808Z,0.80
2018-03-02T17:53:43.021Z,0.80
2018-03-02T17:56:09.231Z,0.70
2018-03-02T17:58:35.564Z,0.70
2018-03-02T18:01:01.785Z,0.60
2018-03-02T18:03:27.918Z,0.50
2018-03-02T18:05:54.097Z,0.50
2018-03-02T18:08:20.252Z,0.60
2018-03-02T18:10:47.161Z,0.60
2018-03-02T18:13:13.378Z,0.60
2018-03-02T18:15:39.606Z,0.60
2018-03-02T18:18:05.800Z,0.60
2018-03-02T18:20:31.988Z,0.60
2018-03-02T18:22:58.353Z,0.50
2018-03-02T18:25:24.511Z,0.60
2018-03-02T18:27:50.756Z,0.50
2018-03-02T18:30:17.663Z,0.50
2018-03-02T18:32:43.943Z,0.50
2018-03-02T18:35:10.169Z,0.50
2018-03-02T18:37:36.303Z,0.50
2018-03-02T18:40:02.542Z,0.40
2018-03-02T18:42:28.852Z,0.40
2018-03-02T18:44:55.033Z,0.40
2018-03-02T18:47:21.377Z,0.30
2018-03-02T18:49:47.711Z,0.10
2018-03-02T18:52:15.025Z,0.10
2018-03-02T18:54:41.318Z,0.00
2018-03-02T18:57:07.660Z,-0.10
2018-03-02T18:59:33.985Z,-0.10
2018-03-02T19:02:00.161Z,-0.10
2018-03-02T19:04:26.354Z,-0.10
2018-03-02T19:06:52.518Z,-0.20
2018-03-02T19:09:18.722Z,-0.20
2018-03-02T19:11:46.076Z,-0.10
2018-03-02T19:14:12.249Z,-0.10
2018-03-02T19:16:39.127Z,-0.10
2018-03-02T19:19:05.421Z,-0.10
2018-03-02T19:21:31.572Z,-0.10
2018-03-02T19:23:57.728Z,-0.10
2018-03-02T19:26:25.713Z,-0.20
2018-03-02T19:28:52.017Z,-0.20
2018-03-02T19:31:18.186Z,-0.30
2018-03-02T19:33:44.357Z,-0.30
2018-03-02T19:36:11.375Z,-0.20
2018-03-02T19:38:37.561Z,-0.30
2018-03-02T19:41:03.739Z,-0.30
2018-03-02T19:43:29.867Z,-0.30
2018-03-02T19:45:56.117Z,-0.40
2018-03-02T19:48:23.046Z,-0.50
2018-03-02T19:50:53.824Z,-0.50
2018-03-02T19:53:20.097Z,-0.50
2018-03-02T19:55:46.282Z,-0.50
2018-03-02T19:58:12.471Z,-0.50
2018-03-02T20:00:39.415Z,-0.60
2018-03-02T20:03:05.568Z,-0.60
2018-03-02T20:05:32.489Z,-0.70
2018-03-02T20:07:58.615Z,-0.80
2018-03-02T20:10:24.820Z,-0.70
2018-03-02T20:12:50.968Z,-0.70
2018-03-02T20:15:17.219Z,-0.80
2018-03-02T20:17:43.500Z,-0.90
2018-03-02T20:20:09.755Z,-0.90
2018-03-02T20:22:36.747Z,-1.00
2018-03-02T20:25:02.936Z,-1.00
2018-03-02T20:27:29.196Z,-1.10
2018-03-02T20:29:55.398Z,-1.10
2018-03-02T20:34:56.670Z,-1.20
2018-03-02T20:37:30.087Z,-1.30
2018-03-02T20:39:56.268Z,-1.30
2018-03-02T20:42:22.585Z,-1.30
2018-03-02T20:44:48.796Z,-1.30
2018-03-02T20:47:15.320Z,-1.30
2018-03-02T20:49:42.293Z,-1.30
2018-03-02T20:52:08.484Z,-1.30
2018-03-02T21:03:45.018Z,-1.40
2018-03-02T21:06:11.320Z,-1.40
2018-03-02T21:08:37.557Z,-1.50
2018-03-02T21:11:03.784Z,-1.50
2018-03-02T21:13:30.025Z,-1.50
2018-03-02T21:15:56.291Z,-1.50
2018-03-02T21:18:22.525Z,-1.50
2018-03-02T21:20:48.719Z,-1.50
2018-03-02T21:23:14.880Z,-1.50
2018-03-02T21:25:43.182Z,-1.60
2018-03-02T21:28:09.391Z,-1.50
2018-03-02T21:30:36.507Z,-1.40
2018-03-02T21:33:02.825Z,-1.50
2018-03-02T21:35:29.023Z,-1.50
2018-03-02T21:37:55.978Z,-1.60
2018-03-02T21:40:22.224Z,-1.60
2018-03-02T21:42:48.464Z,-1.70
2018-03-02T21:45:14.640Z,-1.80
2018-03-02T21:47:40.861Z,-1.80
2018-03-02T21:50:07.111Z,-1.80
2018-03-02T21:52:33.341Z,-1.80
2018-03-02T21:55:02.283Z,-1.90
2018-03-02T21:57:28.448Z,-2.00
2018-03-02T21:59:54.610Z,-1.90
2018-03-02T22:02:21.687Z,-1.80
2018-03-02T22:04:47.938Z,-1.80
2018-03-02T22:07:14.831Z,-1.80
2018-03-02T22:09:41.182Z,-1.70
2018-03-02T22:12:07.424Z,-1.70
2018-03-02T22:14:33.611Z,-1.70
2018-03-02T22:17:01.380Z,-1.80
2018-03-02T22:19:27.600Z,-1.80
2018-03-02T22:21:53.805Z,-1.80
2018-03-02T22:24:20.035Z,-1.80
2018-03-02T22:26:46.532Z,-1.70
2018-03-02T22:29:13.697Z,-1.90
2018-03-02T22:31:40.500Z,-1.90
2018-03-02T22:34:06.796Z,-1.90
2018-03-02T22:36:34.636Z,-2.00
2018-03-02T22:39:00.825Z,-2.00
2018-03-02T22:41:27.774Z,-1.90
2018-03-02T22:43:54.509Z,-1.90
2018-03-02T22:46:20.745Z,-1.90
2018-03-02T22:48:47.017Z,-1.80
2018-03-02T22:51:15.409Z,-1.80
2018-03-02T23:12:00.643Z,-1.90
2018-03-02T23:14:26.872Z,-1.90
2018-03-02T23:16:53.080Z,-2.00
2018-03-02T23:19:19.272Z,-2.00
2018-03-02T23:21:45.481Z,-2.00
2018-03-02T23:24:11.719Z,-2.00
2018-03-02T23:26:37.842Z,-2.00
2018-03-02T23:29:05.282Z,-2.00
2018-03-02T23:31:31.539Z,-2.00
2018-03-02T23:33:57.808Z,-1.80
2018-03-02T23:36:24.018Z,-1.90
2018-03-02T23:38:50.204Z,-1.90
2018-03-02T23:41:16.435Z,-2.00
2018-03-02T23:43:42.597Z,-1.90
2018-03-02T23:46:08.745Z,-1.90
2018-03-02T23:48:34.949Z,-2.00
2018-03-02T23:51:01.816Z,-1.90
2018-03-02T23:53:27.996Z,-1.90
2018-03-02T23:55:54.164Z,-2.00
2018-03-02T23:58:20.306Z,-2.10
